sensor_id;sensor_type;location;lat;lon;timestamp;P1;durP1;ratioP1;P2;durP2;ratioP2
6987;SDS011;3534;49.960;8.018;2023-01-24T00:01:27;15.40;;;10.10;;
6987;SDS011;3534;49.960;8.018;2023-01-24T00:03:55;13.93;;;8.73;;
6987;SDS011;3534;49.960;8.018;2023-01-24T00:06:21;14.07;;;8.93;;
6987;SDS011;3534;49.960;8.018;2023-01-24T00:08:48;17.43;;;10.80;;
6987;SDS011;3534;49.960;8.018;2023-01-24T00:11:15;26.20;;;13.00;;
6987;SDS011;3534;49.960;8.018;2023-01-24T00:13:41;22.47;;;11.77;;
6987;SDS011;3534;49.960;8.018;2023-01-24T00:16:15;18.97;;;11.13;;
6987;SDS011;3534;49.960;8.018;2023-01-24T00:18:43;21.13;;;12.40;;
6987;SDS011;3534;49.960;8.018;2023-01-24T00:21:12;35.93;;;17.57;;
6987;SDS011;3534;49.960;8.018;2023-01-24T00:23:39;36.27;;;16.80;;
6987;SDS011;3534;49.960;8.018;2023-01-24T00:26:07;29.50;;;15.47;;
6987;SDS011;3534;49.960;8.018;2023-01-24T00:28:34;16.97;;;10.93;;
6987;SDS011;3534;49.960;8.018;2023-01-24T00:31:01;16.00;;;9.33;;
6987;SDS011;3534;49.960;8.018;2023-01-24T00:33:28;15.60;;;9.33;;
6987;SDS011;3534;49.960;8.018;2023-01-24T00:35:55;12.77;;;8.40;;
6987;SDS011;3534;49.960;8.018;2023-01-24T00:38:23;13.53;;;9.90;;
6987;SDS011;3534;49.960;8.018;2023-01-24T00:40:50;14.47;;;9.00;;
6987;SDS011;3534;49.960;8.018;2023-01-24T00:43:16;15.43;;;10.10;;
6987;SDS011;3534;49.960;8.018;2023-01-24T00:45:44;15.20;;;8.77;;
6987;SDS011;3534;49.960;8.018;2023-01-24T00:48:11;15.53;;;9.60;;
6987;SDS011;3534;49.960;8.018;2023-01-24T00:50:38;15.90;;;9.80;;
6987;SDS011;3534;49.960;8.018;2023-01-24T00:53:05;25.17;;;13.50;;
6987;SDS011;3534;49.960;8.018;2023-01-24T00:55:33;30.60;;;14.57;;
6987;SDS011;3534;49.960;8.018;2023-01-24T00:58:00;37.40;;;16.90;;
6987;SDS011;3534;49.960;8.018;2023-01-24T01:00:27;32.00;;;15.73;;
6987;SDS011;3534;49.960;8.018;2023-01-24T01:02:53;26.03;;;13.57;;
6987;SDS011;3534;49.960;8.018;2023-01-24T01:05:20;27.63;;;13.30;;
6987;SDS011;3534;49.960;8.018;2023-01-24T01:07:47;27.33;;;14.27;;
6987;SDS011;3534;49.960;8.018;2023-01-24T01:10:13;20.93;;;12.07;;
6987;SDS011;3534;49.960;8.018;2023-01-24T01:12:41;21.73;;;13.63;;
6987;SDS011;3534;49.960;8.018;2023-01-24T01:15:08;29.30;;;14.40;;
6987;SDS011;3534;49.960;8.018;2023-01-24T01:17:36;22.93;;;14.13;;
6987;SDS011;3534;49.960;8.018;2023-01-24T01:20:03;21.93;;;13.10;;
6987;SDS011;3534;49.960;8.018;2023-01-24T01:22:30;26.10;;;13.97;;
6987;SDS011;3534;49.960;8.018;2023-01-24T01:24:57;28.57;;;14.90;;
6987;SDS011;3534;49.960;8.018;2023-01-24T01:27:24;23.50;;;12.90;;
6987;SDS011;3534;49.960;8.018;2023-01-24T01:29:52;21.80;;;12.00;;
6987;SDS011;3534;49.960;8.018;2023-01-24T01:32:18;26.33;;;13.87;;
6987;SDS011;3534;49.960;8.018;2023-01-24T01:34:45;21.03;;;12.33;;
6987;SDS011;3534;49.960;8.018;2023-01-24T01:37:12;21.70;;;12.80;;
6987;SDS011;3534;49.960;8.018;2023-01-24T01:39:38;19.53;;;11.97;;
6987;SDS011;3534;49.960;8.018;2023-01-24T01:42:05;24.43;;;12.67;;
6987;SDS011;3534;49.960;8.018;2023-01-24T01:44:32;19.47;;;11.60;;
6987;SDS011;3534;49.960;8.018;2023-01-24T01:47:13;22.13;;;11.70;;
6987;SDS011;3534;49.960;8.018;2023-01-24T01:49:45;20.40;;;10.90;;
6987;SDS011;3534;49.960;8.018;2023-01-24T01:52:17;20.67;;;12.90;;
6987;SDS011;3534;49.960;8.018;2023-01-24T01:54:47;26.00;;;15.63;;
6987;SDS011;3534;49.960;8.018;2023-01-24T01:57:15;20.23;;;12.10;;
6987;SDS011;3534;49.960;8.018;2023-01-24T01:59:46;22.37;;;12.20;;
6987;SDS011;3534;49.960;8.018;2023-01-24T02:02:16;19.07;;;12.10;;
6987;SDS011;3534;49.960;8.018;2023-01-24T02:04:46;19.00;;;12.30;;
6987;SDS011;3534;49.960;8.018;2023-01-24T02:07:16;16.87;;;10.63;;
6987;SDS011;3534;49.960;8.018;2023-01-24T02:09:47;17.63;;;10.83;;
6987;SDS011;3534;49.960;8.018;2023-01-24T02:12:17;16.90;;;10.70;;
6987;SDS011;3534;49.960;8.018;2023-01-24T02:14:46;20.90;;;11.50;;
6987;SDS011;3534;49.960;8.018;2023-01-24T02:17:35;19.27;;;11.90;;
6987;SDS011;3534;49.960;8.018;2023-01-24T02:20:04;18.00;;;10.60;;
6987;SDS011;3534;49.960;8.018;2023-01-24T02:22:39;18.07;;;11.37;;
6987;SDS011;3534;49.960;8.018;2023-01-24T02:25:19;17.50;;;10.83;;
6987;SDS011;3534;49.960;8.018;2023-01-24T02:27:52;18.77;;;11.70;;
6987;SDS011;3534;49.960;8.018;2023-01-24T02:30:20;18.57;;;10.53;;
6987;SDS011;3534;49.960;8.018;2023-01-24T02:32:47;18.33;;;11.40;;
6987;SDS011;3534;49.960;8.018;2023-01-24T02:35:27;15.00;;;10.60;;
6987;SDS011;3534;49.960;8.018;2023-01-24T02:37:56;19.70;;;11.53;;
6987;SDS011;3534;49.960;8.018;2023-01-24T02:40:24;22.23;;;12.23;;
6987;SDS011;3534;49.960;8.018;2023-01-24T02:42:54;18.50;;;11.90;;
6987;SDS011;3534;49.960;8.018;2023-01-24T02:45:23;19.57;;;11.80;;
6987;SDS011;3534;49.960;8.018;2023-01-24T02:47:52;17.13;;;10.70;;
6987;SDS011;3534;49.960;8.018;2023-01-24T02:50:21;20.50;;;12.37;;
6987;SDS011;3534;49.960;8.018;2023-01-24T02:52:49;18.57;;;11.67;;
6987;SDS011;3534;49.960;8.018;2023-01-24T02:55:34;18.33;;;10.03;;
6987;SDS011;3534;49.960;8.018;2023-01-24T02:58:25;19.53;;;11.20;;
6987;SDS011;3534;49.960;8.018;2023-01-24T03:00:51;16.47;;;10.67;;
6987;SDS011;3534;49.960;8.018;2023-01-24T03:03:18;19.70;;;10.80;;
6987;SDS011;3534;49.960;8.018;2023-01-24T03:05:44;17.43;;;10.53;;
6987;SDS011;3534;49.960;8.018;2023-01-24T03:08:22;17.17;;;10.37;;
6987;SDS011;3534;49.960;8.018;2023-01-24T03:10:50;20.13;;;11.37;;
6987;SDS011;3534;49.960;8.018;2023-01-24T03:13:16;17.63;;;10.70;;
6987;SDS011;3534;49.960;8.018;2023-01-24T03:16:03;17.57;;;10.70;;
6987;SDS011;3534;49.960;8.018;2023-01-24T03:18:48;18.40;;;10.80;;
6987;SDS011;3534;49.960;8.018;2023-01-24T03:21:32;17.63;;;11.23;;
6987;SDS011;3534;49.960;8.018;2023-01-24T03:24:16;18.03;;;10.50;;
6987;SDS011;3534;49.960;8.018;2023-01-24T03:27:01;18.33;;;11.80;;
6987;SDS011;3534;49.960;8.018;2023-01-24T03:29:45;20.90;;;11.47;;
6987;SDS011;3534;49.960;8.018;2023-01-24T03:32:31;17.30;;;11.30;;
6987;SDS011;3534;49.960;8.018;2023-01-24T03:35:15;18.83;;;11.57;;
6987;SDS011;3534;49.960;8.018;2023-01-24T03:37:42;22.53;;;11.87;;
6987;SDS011;3534;49.960;8.018;2023-01-24T03:40:26;18.60;;;11.20;;
6987;SDS011;3534;49.960;8.018;2023-01-24T03:42:53;18.20;;;11.70;;
6987;SDS011;3534;49.960;8.018;2023-01-24T03:45:21;17.30;;;10.80;;
6987;SDS011;3534;49.960;8.018;2023-01-24T03:47:51;17.70;;;11.30;;
6987;SDS011;3534;49.960;8.018;2023-01-24T03:50:23;19.10;;;11.53;;
6987;SDS011;3534;49.960;8.018;2023-01-24T03:53:09;19.70;;;10.97;;
6987;SDS011;3534;49.960;8.018;2023-01-24T03:55:37;18.20;;;10.60;;
6987;SDS011;3534;49.960;8.018;2023-01-24T03:58:04;20.33;;;12.10;;
6987;SDS011;3534;49.960;8.018;2023-01-24T04:00:32;18.73;;;11.20;;
6987;SDS011;3534;49.960;8.018;2023-01-24T04:03:01;18.20;;;11.67;;
6987;SDS011;3534;49.960;8.018;2023-01-24T04:05:28;15.67;;;11.07;;
6987;SDS011;3534;49.960;8.018;2023-01-24T04:07:55;18.17;;;10.87;;
6987;SDS011;3534;49.960;8.018;2023-01-24T04:10:22;16.20;;;11.17;;
6987;SDS011;3534;49.960;8.018;2023-01-24T04:12:49;16.33;;;10.37;;
6987;SDS011;3534;49.960;8.018;2023-01-24T04:15:16;18.33;;;10.30;;
6987;SDS011;3534;49.960;8.018;2023-01-24T04:17:44;16.00;;;10.07;;
6987;SDS011;3534;49.960;8.018;2023-01-24T04:20:13;16.57;;;10.30;;
6987;SDS011;3534;49.960;8.018;2023-01-24T04:22:40;15.70;;;10.87;;
6987;SDS011;3534;49.960;8.018;2023-01-24T04:25:07;15.57;;;9.40;;
6987;SDS011;3534;49.960;8.018;2023-01-24T04:27:35;18.03;;;10.73;;
6987;SDS011;3534;49.960;8.018;2023-01-24T04:30:02;15.63;;;9.93;;
6987;SDS011;3534;49.960;8.018;2023-01-24T04:32:30;17.33;;;11.23;;
6987;SDS011;3534;49.960;8.018;2023-01-24T04:34:56;20.93;;;11.90;;
6987;SDS011;3534;49.960;8.018;2023-01-24T04:37:25;16.77;;;10.40;;
6987;SDS011;3534;49.960;8.018;2023-01-24T04:39:51;17.83;;;10.77;;
6987;SDS011;3534;49.960;8.018;2023-01-24T04:42:18;17.80;;;10.27;;
6987;SDS011;3534;49.960;8.018;2023-01-24T04:44:45;18.03;;;10.60;;
6987;SDS011;3534;49.960;8.018;2023-01-24T04:47:11;18.10;;;11.50;;
6987;SDS011;3534;49.960;8.018;2023-01-24T04:49:38;17.00;;;10.50;;
6987;SDS011;3534;49.960;8.018;2023-01-24T04:52:05;17.03;;;11.23;;
6987;SDS011;3534;49.960;8.018;2023-01-24T04:54:33;20.63;;;11.30;;
6987;SDS011;3534;49.960;8.018;2023-01-24T04:57:00;17.73;;;10.73;;
6987;SDS011;3534;49.960;8.018;2023-01-24T04:59:27;19.47;;;10.23;;
6987;SDS011;3534;49.960;8.018;2023-01-24T05:01:53;20.73;;;11.87;;
6987;SDS011;3534;49.960;8.018;2023-01-24T05:04:20;18.20;;;10.20;;
6987;SDS011;3534;49.960;8.018;2023-01-24T05:06:46;16.43;;;10.17;;
6987;SDS011;3534;49.960;8.018;2023-01-24T05:09:13;20.00;;;10.80;;
6987;SDS011;3534;49.960;8.018;2023-01-24T05:11:41;15.60;;;10.63;;
6987;SDS011;3534;49.960;8.018;2023-01-24T05:14:08;15.80;;;10.00;;
6987;SDS011;3534;49.960;8.018;2023-01-24T05:16:35;17.70;;;10.57;;
6987;SDS011;3534;49.960;8.018;2023-01-24T05:19:02;15.53;;;10.47;;
6987;SDS011;3534;49.960;8.018;2023-01-24T05:21:28;17.00;;;10.07;;
6987;SDS011;3534;49.960;8.018;2023-01-24T05:23:55;17.20;;;10.47;;
6987;SDS011;3534;49.960;8.018;2023-01-24T05:26:22;17.90;;;10.60;;
6987;SDS011;3534;49.960;8.018;2023-01-24T05:28:52;16.57;;;10.20;;
6987;SDS011;3534;49.960;8.018;2023-01-24T05:31:19;18.77;;;10.90;;
6987;SDS011;3534;49.960;8.018;2023-01-24T05:33:46;14.67;;;9.60;;
6987;SDS011;3534;49.960;8.018;2023-01-24T05:36:14;17.23;;;11.03;;
6987;SDS011;3534;49.960;8.018;2023-01-24T05:38:43;20.30;;;10.50;;
6987;SDS011;3534;49.960;8.018;2023-01-24T05:41:11;17.63;;;10.40;;
6987;SDS011;3534;49.960;8.018;2023-01-24T05:43:41;16.30;;;10.73;;
6987;SDS011;3534;49.960;8.018;2023-01-24T05:46:10;17.33;;;10.50;;
6987;SDS011;3534;49.960;8.018;2023-01-24T05:48:38;16.93;;;11.07;;
6987;SDS011;3534;49.960;8.018;2023-01-24T05:51:05;21.13;;;10.43;;
6987;SDS011;3534;49.960;8.018;2023-01-24T05:53:34;18.97;;;11.13;;
6987;SDS011;3534;49.960;8.018;2023-01-24T05:56:03;17.97;;;9.97;;
6987;SDS011;3534;49.960;8.018;2023-01-24T05:58:33;17.77;;;10.50;;
6987;SDS011;3534;49.960;8.018;2023-01-24T06:01:00;20.27;;;11.23;;
6987;SDS011;3534;49.960;8.018;2023-01-24T06:03:32;16.73;;;10.23;;
6987;SDS011;3534;49.960;8.018;2023-01-24T06:05:59;16.70;;;10.50;;
6987;SDS011;3534;49.960;8.018;2023-01-24T06:08:26;21.17;;;10.63;;
6987;SDS011;3534;49.960;8.018;2023-01-24T06:10:53;17.27;;;10.07;;
6987;SDS011;3534;49.960;8.018;2023-01-24T06:13:19;19.10;;;11.20;;
6987;SDS011;3534;49.960;8.018;2023-01-24T06:15:46;20.23;;;11.40;;
6987;SDS011;3534;49.960;8.018;2023-01-24T06:18:13;19.53;;;10.67;;
6987;SDS011;3534;49.960;8.018;2023-01-24T06:20:44;16.97;;;10.60;;
6987;SDS011;3534;49.960;8.018;2023-01-24T06:23:16;20.20;;;10.87;;
6987;SDS011;3534;49.960;8.018;2023-01-24T06:25:48;22.33;;;11.27;;
6987;SDS011;3534;49.960;8.018;2023-01-24T06:28:16;17.77;;;10.80;;
6987;SDS011;3534;49.960;8.018;2023-01-24T06:30:43;16.27;;;9.50;;
6987;SDS011;3534;49.960;8.018;2023-01-24T06:33:21;18.30;;;10.07;;
6987;SDS011;3534;49.960;8.018;2023-01-24T06:36:05;20.43;;;9.20;;
6987;SDS011;3534;49.960;8.018;2023-01-24T06:38:42;17.57;;;9.67;;
6987;SDS011;3534;49.960;8.018;2023-01-24T06:41:13;18.00;;;9.97;;
6987;SDS011;3534;49.960;8.018;2023-01-24T06:43:41;14.87;;;9.03;;
6987;SDS011;3534;49.960;8.018;2023-01-24T06:46:09;14.13;;;8.53;;
6987;SDS011;3534;49.960;8.018;2023-01-24T06:48:36;14.57;;;9.37;;
6987;SDS011;3534;49.960;8.018;2023-01-24T06:51:04;14.30;;;8.70;;
6987;SDS011;3534;49.960;8.018;2023-01-24T06:53:31;17.50;;;9.17;;
6987;SDS011;3534;49.960;8.018;2023-01-24T06:55:58;12.53;;;8.67;;
6987;SDS011;3534;49.960;8.018;2023-01-24T06:58:25;15.27;;;8.50;;
6987;SDS011;3534;49.960;8.018;2023-01-24T07:00:52;19.40;;;12.10;;
6987;SDS011;3534;49.960;8.018;2023-01-24T07:03:19;16.87;;;8.77;;
6987;SDS011;3534;49.960;8.018;2023-01-24T07:05:45;15.90;;;9.40;;
6987;SDS011;3534;49.960;8.018;2023-01-24T07:08:15;15.60;;;9.20;;
6987;SDS011;3534;49.960;8.018;2023-01-24T07:10:44;15.87;;;10.20;;
6987;SDS011;3534;49.960;8.018;2023-01-24T07:13:11;16.80;;;9.87;;
6987;SDS011;3534;49.960;8.018;2023-01-24T07:15:38;16.53;;;9.27;;
6987;SDS011;3534;49.960;8.018;2023-01-24T07:18:05;16.80;;;9.03;;
6987;SDS011;3534;49.960;8.018;2023-01-24T07:20:32;17.00;;;9.97;;
6987;SDS011;3534;49.960;8.018;2023-01-24T07:22:59;14.23;;;9.80;;
6987;SDS011;3534;49.960;8.018;2023-01-24T07:25:27;16.50;;;9.50;;
6987;SDS011;3534;49.960;8.018;2023-01-24T07:27:55;18.97;;;10.13;;
6987;SDS011;3534;49.960;8.018;2023-01-24T07:30:22;18.17;;;10.10;;
6987;SDS011;3534;49.960;8.018;2023-01-24T07:32:48;15.87;;;10.10;;
6987;SDS011;3534;49.960;8.018;2023-01-24T07:35:15;15.30;;;9.07;;
6987;SDS011;3534;49.960;8.018;2023-01-24T07:37:42;15.13;;;9.20;;
6987;SDS011;3534;49.960;8.018;2023-01-24T07:40:09;15.30;;;9.50;;
6987;SDS011;3534;49.960;8.018;2023-01-24T07:42:38;14.40;;;9.57;;
6987;SDS011;3534;49.960;8.018;2023-01-24T07:45:05;16.43;;;9.47;;
6987;SDS011;3534;49.960;8.018;2023-01-24T07:47:32;18.00;;;9.93;;
6987;SDS011;3534;49.960;8.018;2023-01-24T07:49:59;14.70;;;9.60;;
6987;SDS011;3534;49.960;8.018;2023-01-24T07:52:25;17.10;;;10.77;;
6987;SDS011;3534;49.960;8.018;2023-01-24T07:54:52;15.43;;;8.90;;
6987;SDS011;3534;49.960;8.018;2023-01-24T07:57:19;13.97;;;8.77;;
6987;SDS011;3534;49.960;8.018;2023-01-24T07:59:47;15.17;;;8.40;;
6987;SDS011;3534;49.960;8.018;2023-01-24T08:02:13;15.30;;;9.13;;
6987;SDS011;3534;49.960;8.018;2023-01-24T08:04:40;12.70;;;8.33;;
6987;SDS011;3534;49.960;8.018;2023-01-24T08:07:07;14.97;;;9.67;;
6987;SDS011;3534;49.960;8.018;2023-01-24T08:09:42;17.53;;;9.03;;
6987;SDS011;3534;49.960;8.018;2023-01-24T08:12:09;16.47;;;9.50;;
6987;SDS011;3534;49.960;8.018;2023-01-24T08:14:36;12.97;;;8.27;;
6987;SDS011;3534;49.960;8.018;2023-01-24T08:17:04;16.80;;;9.07;;
6987;SDS011;3534;49.960;8.018;2023-01-24T08:19:30;17.47;;;9.83;;
6987;SDS011;3534;49.960;8.018;2023-01-24T08:21:57;21.47;;;10.80;;
6987;SDS011;3534;49.960;8.018;2023-01-24T08:24:24;15.50;;;9.30;;
6987;SDS011;3534;49.960;8.018;2023-01-24T08:26:51;20.70;;;10.03;;
6987;SDS011;3534;49.960;8.018;2023-01-24T08:29:17;17.00;;;9.20;;
6987;SDS011;3534;49.960;8.018;2023-01-24T08:31:44;13.53;;;8.53;;
6987;SDS011;3534;49.960;8.018;2023-01-24T08:34:14;14.40;;;9.80;;
6987;SDS011;3534;49.960;8.018;2023-01-24T08:36:41;15.90;;;9.60;;
6987;SDS011;3534;49.960;8.018;2023-01-24T08:39:07;17.33;;;11.03;;
6987;SDS011;3534;49.960;8.018;2023-01-24T08:41:34;17.93;;;10.00;;
6987;SDS011;3534;49.960;8.018;2023-01-24T08:44:01;20.00;;;11.13;;
6987;SDS011;3534;49.960;8.018;2023-01-24T08:46:28;16.23;;;10.07;;
6987;SDS011;3534;49.960;8.018;2023-01-24T08:48:55;15.70;;;9.77;;
6987;SDS011;3534;49.960;8.018;2023-01-24T08:51:23;16.47;;;8.50;;
6987;SDS011;3534;49.960;8.018;2023-01-24T08:53:50;16.03;;;9.83;;
6987;SDS011;3534;49.960;8.018;2023-01-24T08:56:16;16.50;;;9.47;;
6987;SDS011;3534;49.960;8.018;2023-01-24T08:58:43;19.60;;;10.07;;
6987;SDS011;3534;49.960;8.018;2023-01-24T09:01:10;15.67;;;9.83;;
6987;SDS011;3534;49.960;8.018;2023-01-24T09:03:37;14.53;;;8.80;;
6987;SDS011;3534;49.960;8.018;2023-01-24T09:06:04;19.87;;;9.93;;
6987;SDS011;3534;49.960;8.018;2023-01-24T09:08:32;15.20;;;8.60;;
6987;SDS011;3534;49.960;8.018;2023-01-24T09:10:59;15.40;;;9.33;;
6987;SDS011;3534;49.960;8.018;2023-01-24T09:13:26;15.00;;;8.00;;
6987;SDS011;3534;49.960;8.018;2023-01-24T09:15:54;14.47;;;8.30;;
6987;SDS011;3534;49.960;8.018;2023-01-24T09:18:22;15.43;;;8.77;;
6987;SDS011;3534;49.960;8.018;2023-01-24T09:20:49;13.87;;;8.30;;
6987;SDS011;3534;49.960;8.018;2023-01-24T09:23:16;13.77;;;8.30;;
6987;SDS011;3534;49.960;8.018;2023-01-24T09:25:50;13.70;;;9.43;;
6987;SDS011;3534;49.960;8.018;2023-01-24T09:28:17;13.93;;;8.77;;
6987;SDS011;3534;49.960;8.018;2023-01-24T09:30:45;14.80;;;9.40;;
6987;SDS011;3534;49.960;8.018;2023-01-24T09:33:13;16.07;;;9.60;;
6987;SDS011;3534;49.960;8.018;2023-01-24T09:35:42;13.23;;;8.53;;
6987;SDS011;3534;49.960;8.018;2023-01-24T09:38:16;15.83;;;8.47;;
6987;SDS011;3534;49.960;8.018;2023-01-24T09:40:43;13.63;;;8.37;;
6987;SDS011;3534;49.960;8.018;2023-01-24T09:43:18;14.87;;;8.87;;
6987;SDS011;3534;49.960;8.018;2023-01-24T09:45:57;13.60;;;8.40;;
6987;SDS011;3534;49.960;8.018;2023-01-24T09:48:31;15.23;;;8.27;;
6987;SDS011;3534;49.960;8.018;2023-01-24T09:50:59;15.00;;;8.37;;
6987;SDS011;3534;49.960;8.018;2023-01-24T09:53:33;13.07;;;7.93;;
6987;SDS011;3534;49.960;8.018;2023-01-24T09:56:06;16.00;;;7.80;;
6987;SDS011;3534;49.960;8.018;2023-01-24T09:58:52;13.30;;;8.00;;
6987;SDS011;3534;49.960;8.018;2023-01-24T10:01:34;12.00;;;7.17;;
6987;SDS011;3534;49.960;8.018;2023-01-24T10:04:03;12.80;;;7.63;;
6987;SDS011;3534;49.960;8.018;2023-01-24T10:06:30;13.00;;;7.30;;
6987;SDS011;3534;49.960;8.018;2023-01-24T10:08:58;10.67;;;6.83;;
6987;SDS011;3534;49.960;8.018;2023-01-24T10:11:36;10.10;;;6.60;;
6987;SDS011;3534;49.960;8.018;2023-01-24T10:14:24;10.07;;;6.47;;
6987;SDS011;3534;49.960;8.018;2023-01-24T10:17:16;11.73;;;7.60;;
6987;SDS011;3534;49.960;8.018;2023-01-24T10:22:56;8.40;;;6.00;;
6987;SDS011;3534;49.960;8.018;2023-01-24T10:25:29;10.77;;;7.03;;
6987;SDS011;3534;49.960;8.018;2023-01-24T10:28:00;14.20;;;7.97;;
6987;SDS011;3534;49.960;8.018;2023-01-24T10:30:33;15.97;;;7.53;;
6987;SDS011;3534;49.960;8.018;2023-01-24T10:33:14;12.03;;;7.17;;
6987;SDS011;3534;49.960;8.018;2023-01-24T10:35:51;13.13;;;7.50;;
6987;SDS011;3534;49.960;8.018;2023-01-24T10:38:22;11.10;;;6.30;;
6987;SDS011;3534;49.960;8.018;2023-01-24T10:40:53;10.53;;;6.20;;
6987;SDS011;3534;49.960;8.018;2023-01-24T10:43:22;10.90;;;6.63;;
6987;SDS011;3534;49.960;8.018;2023-01-24T10:45:59;12.37;;;7.00;;
6987;SDS011;3534;49.960;8.018;2023-01-24T10:48:37;14.87;;;7.67;;
6987;SDS011;3534;49.960;8.018;2023-01-24T10:51:11;10.40;;;6.90;;
6987;SDS011;3534;49.960;8.018;2023-01-24T10:53:40;11.00;;;6.80;;
6987;SDS011;3534;49.960;8.018;2023-01-24T10:56:07;10.37;;;7.10;;
6987;SDS011;3534;49.960;8.018;2023-01-24T10:58:35;8.37;;;6.40;;
6987;SDS011;3534;49.960;8.018;2023-01-24T11:01:07;10.10;;;7.00;;
6987;SDS011;3534;49.960;8.018;2023-01-24T11:03:48;12.77;;;7.43;;
6987;SDS011;3534;49.960;8.018;2023-01-24T11:06:23;10.63;;;7.30;;
6987;SDS011;3534;49.960;8.018;2023-01-24T11:09:03;10.37;;;6.67;;
6987;SDS011;3534;49.960;8.018;2023-01-24T11:11:35;10.10;;;6.73;;
6987;SDS011;3534;49.960;8.018;2023-01-24T11:14:13;9.77;;;6.27;;
6987;SDS011;3534;49.960;8.018;2023-01-24T11:16:43;8.07;;;6.00;;
6987;SDS011;3534;49.960;8.018;2023-01-24T11:21:58;9.67;;;5.93;;
6987;SDS011;3534;49.960;8.018;2023-01-24T11:24:26;9.20;;;6.50;;
6987;SDS011;3534;49.960;8.018;2023-01-24T11:26:55;9.77;;;5.83;;
6987;SDS011;3534;49.960;8.018;2023-01-24T11:29:27;8.53;;;5.77;;
6987;SDS011;3534;49.960;8.018;2023-01-24T11:31:55;10.87;;;6.70;;
6987;SDS011;3534;49.960;8.018;2023-01-24T11:34:42;10.60;;;7.20;;
6987;SDS011;3534;49.960;8.018;2023-01-24T11:37:20;9.37;;;6.93;;
6987;SDS011;3534;49.960;8.018;2023-01-24T11:40:21;9.67;;;7.20;;
6987;SDS011;3534;49.960;8.018;2023-01-24T11:43:05;11.97;;;7.20;;
6987;SDS011;3534;49.960;8.018;2023-01-24T11:45:53;10.93;;;6.83;;
6987;SDS011;3534;49.960;8.018;2023-01-24T11:48:28;13.23;;;7.97;;
6987;SDS011;3534;49.960;8.018;2023-01-24T11:51:07;13.53;;;7.50;;
6987;SDS011;3534;49.960;8.018;2023-01-24T11:53:50;12.67;;;6.50;;
6987;SDS011;3534;49.960;8.018;2023-01-24T11:56:29;7.63;;;5.70;;
6987;SDS011;3534;49.960;8.018;2023-01-24T12:02:01;10.07;;;6.67;;
6987;SDS011;3534;49.960;8.018;2023-01-24T12:04:46;13.27;;;7.43;;
6987;SDS011;3534;49.960;8.018;2023-01-24T12:07:31;8.87;;;6.23;;
6987;SDS011;3534;49.960;8.018;2023-01-24T12:10:11;11.67;;;7.50;;
6987;SDS011;3534;49.960;8.018;2023-01-24T12:12:49;9.73;;;6.27;;
6987;SDS011;3534;49.960;8.018;2023-01-24T12:15:23;12.10;;;7.80;;
6987;SDS011;3534;49.960;8.018;2023-01-24T12:18:01;11.37;;;7.40;;
6987;SDS011;3534;49.960;8.018;2023-01-24T12:23:28;13.97;;;7.10;;
6987;SDS011;3534;49.960;8.018;2023-01-24T12:26:13;13.03;;;8.33;;
6987;SDS011;3534;49.960;8.018;2023-01-24T12:28:44;11.30;;;8.00;;
6987;SDS011;3534;49.960;8.018;2023-01-24T12:31:21;12.00;;;7.60;;
6987;SDS011;3534;49.960;8.018;2023-01-24T12:33:53;14.10;;;6.53;;
6987;SDS011;3534;49.960;8.018;2023-01-24T12:36:32;10.40;;;7.63;;
6987;SDS011;3534;49.960;8.018;2023-01-24T12:39:06;14.13;;;8.37;;
6987;SDS011;3534;49.960;8.018;2023-01-24T12:41:39;14.37;;;8.20;;
6987;SDS011;3534;49.960;8.018;2023-01-24T12:44:11;11.63;;;7.47;;
6987;SDS011;3534;49.960;8.018;2023-01-24T12:46:45;13.60;;;7.30;;
6987;SDS011;3534;49.960;8.018;2023-01-24T12:49:25;10.80;;;7.07;;
6987;SDS011;3534;49.960;8.018;2023-01-24T12:51:58;13.13;;;7.80;;
6987;SDS011;3534;49.960;8.018;2023-01-24T12:54:28;12.67;;;8.17;;
6987;SDS011;3534;49.960;8.018;2023-01-24T12:57:02;13.40;;;8.60;;
6987;SDS011;3534;49.960;8.018;2023-01-24T12:59:36;8.20;;;6.47;;
6987;SDS011;3534;49.960;8.018;2023-01-24T13:02:06;12.63;;;7.80;;
6987;SDS011;3534;49.960;8.018;2023-01-24T13:04:55;12.70;;;7.77;;
6987;SDS011;3534;49.960;8.018;2023-01-24T13:07:35;11.20;;;7.67;;
6987;SDS011;3534;49.960;8.018;2023-01-24T13:10:11;10.97;;;7.80;;
6987;SDS011;3534;49.960;8.018;2023-01-24T13:12:43;10.07;;;6.83;;
6987;SDS011;3534;49.960;8.018;2023-01-24T13:15:14;9.50;;;6.70;;
6987;SDS011;3534;49.960;8.018;2023-01-24T13:17:55;12.83;;;7.50;;
6987;SDS011;3534;49.960;8.018;2023-01-24T13:20:39;11.27;;;7.17;;
6987;SDS011;3534;49.960;8.018;2023-01-24T13:23:26;13.43;;;7.37;;
6987;SDS011;3534;49.960;8.018;2023-01-24T13:26:11;10.27;;;6.87;;
6987;SDS011;3534;49.960;8.018;2023-01-24T13:28:49;11.17;;;7.73;;
6987;SDS011;3534;49.960;8.018;2023-01-24T13:31:22;12.97;;;7.00;;
6987;SDS011;3534;49.960;8.018;2023-01-24T13:33:54;11.60;;;7.20;;
6987;SDS011;3534;49.960;8.018;2023-01-24T13:36:25;13.00;;;7.73;;
6987;SDS011;3534;49.960;8.018;2023-01-24T13:38:56;10.40;;;7.30;;
6987;SDS011;3534;49.960;8.018;2023-01-24T13:41:32;12.07;;;7.43;;
6987;SDS011;3534;49.960;8.018;2023-01-24T13:44:00;9.67;;;6.50;;
6987;SDS011;3534;49.960;8.018;2023-01-24T13:49:33;10.93;;;7.07;;
6987;SDS011;3534;49.960;8.018;2023-01-24T13:52:03;13.10;;;6.40;;
6987;SDS011;3534;49.960;8.018;2023-01-24T13:54:35;10.17;;;7.33;;
6987;SDS011;3534;49.960;8.018;2023-01-24T14:00:14;10.63;;;6.97;;
6987;SDS011;3534;49.960;8.018;2023-01-24T14:02:55;16.63;;;8.17;;
6987;SDS011;3534;49.960;8.018;2023-01-24T14:05:34;13.33;;;8.70;;
6987;SDS011;3534;49.960;8.018;2023-01-24T14:08:35;13.20;;;8.60;;
6987;SDS011;3534;49.960;8.018;2023-01-24T14:11:22;10.80;;;6.90;;
6987;SDS011;3534;49.960;8.018;2023-01-24T14:16:59;9.70;;;6.70;;
6987;SDS011;3534;49.960;8.018;2023-01-24T14:19:49;11.40;;;7.70;;
6987;SDS011;3534;49.960;8.018;2023-01-24T14:22:21;11.03;;;7.20;;
6987;SDS011;3534;49.960;8.018;2023-01-24T14:24:58;11.37;;;6.70;;
6987;SDS011;3534;49.960;8.018;2023-01-24T14:27:34;11.70;;;7.60;;
6987;SDS011;3534;49.960;8.018;2023-01-24T14:30:15;11.50;;;7.47;;
6987;SDS011;3534;49.960;8.018;2023-01-24T14:32:53;10.53;;;6.63;;
6987;SDS011;3534;49.960;8.018;2023-01-24T14:35:25;9.60;;;6.77;;
6987;SDS011;3534;49.960;8.018;2023-01-24T14:37:53;10.33;;;6.63;;
6987;SDS011;3534;49.960;8.018;2023-01-24T14:40:38;7.57;;;5.60;;
6987;SDS011;3534;49.960;8.018;2023-01-24T14:43:08;11.17;;;7.87;;
6987;SDS011;3534;49.960;8.018;2023-01-24T14:45:36;15.77;;;10.40;;
6987;SDS011;3534;49.960;8.018;2023-01-24T14:48:05;11.50;;;6.80;;
6987;SDS011;3534;49.960;8.018;2023-01-24T14:50:34;14.47;;;6.80;;
6987;SDS011;3534;49.960;8.018;2023-01-24T14:53:04;9.13;;;6.30;;
6987;SDS011;3534;49.960;8.018;2023-01-24T14:55:54;11.00;;;7.73;;
6987;SDS011;3534;49.960;8.018;2023-01-24T14:58:27;10.47;;;7.93;;
6987;SDS011;3534;49.960;8.018;2023-01-24T15:00:55;13.00;;;8.93;;
6987;SDS011;3534;49.960;8.018;2023-01-24T15:03:24;10.67;;;7.77;;
6987;SDS011;3534;49.960;8.018;2023-01-24T15:05:54;11.57;;;7.57;;
6987;SDS011;3534;49.960;8.018;2023-01-24T15:08:25;10.33;;;6.80;;
6987;SDS011;3534;49.960;8.018;2023-01-24T15:10:53;13.40;;;8.37;;
6987;SDS011;3534;49.960;8.018;2023-01-24T15:13:28;10.00;;;6.20;;
6987;SDS011;3534;49.960;8.018;2023-01-24T15:15:57;11.90;;;7.37;;
6987;SDS011;3534;49.960;8.018;2023-01-24T15:18:29;15.63;;;8.50;;
6987;SDS011;3534;49.960;8.018;2023-01-24T15:21:02;13.93;;;7.60;;
6987;SDS011;3534;49.960;8.018;2023-01-24T15:23:29;15.80;;;9.50;;
6987;SDS011;3534;49.960;8.018;2023-01-24T15:25:57;13.50;;;8.10;;
6987;SDS011;3534;49.960;8.018;2023-01-24T15:28:45;14.13;;;7.73;;
6987;SDS011;3534;49.960;8.018;2023-01-24T15:31:16;14.20;;;8.20;;
6987;SDS011;3534;49.960;8.018;2023-01-24T15:33:57;11.13;;;6.90;;
6987;SDS011;3534;49.960;8.018;2023-01-24T15:36:26;13.90;;;7.07;;
6987;SDS011;3534;49.960;8.018;2023-01-24T15:38:55;12.37;;;7.00;;
6987;SDS011;3534;49.960;8.018;2023-01-24T15:41:23;14.20;;;8.30;;